sensor_id;sensor_type;location;lat;lon;timestamp;temperature;humidity
21246;DHT22;10781;50.928;4.440;2022-12-29T00:02:17;12.00;99.90
21246;DHT22;10781;50.928;4.440;2022-12-29T00:04:43;12.10;99.90
21246;DHT22;10781;50.928;4.440;2022-12-29T00:07:09;12.00;99.90
21246;DHT22;10781;50.928;4.440;2022-12-29T00:09:35;12.00;99.90
21246;DHT22;10781;50.928;4.440;2022-12-29T00:12:02;12.00;99.90
21246;DHT22;10781;50.928;4.440;2022-12-29T00:14:28;12.00;99.90
21246;DHT22;10781;50.928;4.440;2022-12-29T00:17:13;12.10;99.90
21246;DHT22;10781;50.928;4.440;2022-12-29T00:19:39;12.00;99.90
21246;DHT22;10781;50.928;4.440;2022-12-29T00:22:24;12.00;99.90
21246;DHT22;10781;50.928;4.440;2022-12-29T00:25:10;12.00;99.90
21246;DHT22;10781;50.928;4.440;2022-12-29T00:27:55;12.00;99.90
21246;DHT22;10781;50.928;4.440;2022-12-29T00:30:39;12.00;99.90
21246;DHT22;10781;50.928;4.440;2022-12-29T00:33:31;12.10;99.90
21246;DHT22;10781;50.928;4.440;2022-12-29T00:36:27;12.10;99.90
21246;DHT22;10781;50.928;4.440;2022-12-29T00:38:57;12.20;99.90
21246;DHT22;10781;50.928;4.440;2022-12-29T00:41:43;12.20;99.90
21246;DHT22;10781;50.928;4.440;2022-12-29T00:44:27;12.20;99.90
21246;DHT22;10781;50.928;4.440;2022-12-29T00:46:53;12.30;99.90
21246;DHT22;10781;50.928;4.440;2022-12-29T00:49:19;12.30;99.90
21246;DHT22;10781;50.928;4.440;2022-12-29T00:52:06;12.40;99.90
21246;DHT22;10781;50.928;4.440;2022-12-29T00:54:36;12.50;99.90
21246;DHT22;10781;50.928;4.440;2022-12-29T00:57:04;12.50;99.90
21246;DHT22;10781;50.928;4.440;2022-12-29T00:59:30;12.50;99.90
21246;DHT22;10781;50.928;4.440;2022-12-29T01:01:55;12.50;99.90
21246;DHT22;10781;50.928;4.440;2022-12-29T01:04:23;12.60;99.90
21246;DHT22;10781;50.928;4.440;2022-12-29T01:06:49;12.60;99.90
21246;DHT22;10781;50.928;4.440;2022-12-29T01:09:16;12.50;99.90
21246;DHT22;10781;50.928;4.440;2022-12-29T01:12:00;12.40;99.90
21246;DHT22;10781;50.928;4.440;2022-12-29T01:14:26;12.40;99.90
21246;DHT22;10781;50.928;4.440;2022-12-29T01:16:53;12.30;99.90
21246;DHT22;10781;50.928;4.440;2022-12-29T01:19:20;12.30;99.90
21246;DHT22;10781;50.928;4.440;2022-12-29T01:21:49;12.40;99.90
21246;DHT22;10781;50.928;4.440;2022-12-29T01:24:16;12.40;99.90
21246;DHT22;10781;50.928;4.440;2022-12-29T01:26:42;12.30;99.90
21246;DHT22;10781;50.928;4.440;2022-12-29T01:29:08;12.30;99.90
21246;DHT22;10781;50.928;4.440;2022-12-29T01:31:34;12.20;99.90
21246;DHT22;10781;50.928;4.440;2022-12-29T01:34:00;12.20;99.90
21246;DHT22;10781;50.928;4.440;2022-12-29T01:36:26;12.20;99.90
21246;DHT22;10781;50.928;4.440;2022-12-29T01:38:51;12.10;99.90
21246;DHT22;10781;50.928;4.440;2022-12-29T01:41:17;12.10;99.90
21246;DHT22;10781;50.928;4.440;2022-12-29T01:43:55;12.10;99.90
21246;DHT22;10781;50.928;4.440;2022-12-29T01:46:34;12.10;99.90
21246;DHT22;10781;50.928;4.440;2022-12-29T01:51:39;12.10;99.90
21246;DHT22;10781;50.928;4.440;2022-12-29T01:54:12;12.10;99.90
21246;DHT22;10781;50.928;4.440;2022-12-29T01:56:39;12.00;99.90
21246;DHT22;10781;50.928;4.440;2022-12-29T01:59:10;11.90;99.90
21246;DHT22;10781;50.928;4.440;2022-12-29T02:01:37;11.90;99.90
21246;DHT22;10781;50.928;4.440;2022-12-29T02:04:04;12.00;99.90
21246;DHT22;10781;50.928;4.440;2022-12-29T02:06:38;11.90;99.90
21246;DHT22;10781;50.928;4.440;2022-12-29T02:09:06;11.90;99.90
21246;DHT22;10781;50.928;4.440;2022-12-29T02:11:32;11.90;99.90
21246;DHT22;10781;50.928;4.440;2022-12-29T02:13:57;11.80;99.90
21246;DHT22;10781;50.928;4.440;2022-12-29T02:16:57;11.80;99.90
21246;DHT22;10781;50.928;4.440;2022-12-29T02:27:21;11.30;99.90
21246;DHT22;10781;50.928;4.440;2022-12-29T02:32:58;11.10;99.90
21246;DHT22;10781;50.928;4.440;2022-12-29T02:35:49;10.90;99.90
21246;DHT22;10781;50.928;4.440;2022-12-29T02:38:36;10.80;99.90
21246;DHT22;10781;50.928;4.440;2022-12-29T02:41:14;10.70;99.90
21246;DHT22;10781;50.928;4.440;2022-12-29T02:46:28;10.70;99.90
21246;DHT22;10781;50.928;4.440;2022-12-29T02:49:20;10.70;99.90
21246;DHT22;10781;50.928;4.440;2022-12-29T02:54:27;10.70;99.90
21246;DHT22;10781;50.928;4.440;2022-12-29T02:59:58;10.60;99.90
21246;DHT22;10781;50.928;4.440;2022-12-29T03:02:31;10.60;99.90
21246;DHT22;10781;50.928;4.440;2022-12-29T03:19:49;10.40;99.90
21246;DHT22;10781;50.928;4.440;2022-12-29T03:22:08;10.30;99.90
21246;DHT22;10781;50.928;4.440;2022-12-29T03:25:06;10.30;99.90
21246;DHT22;10781;50.928;4.440;2022-12-29T03:27:56;10.20;99.90
21246;DHT22;10781;50.928;4.440;2022-12-29T03:30:24;10.10;99.90
21246;DHT22;10781;50.928;4.440;2022-12-29T03:32:54;10.10;99.90
21246;DHT22;10781;50.928;4.440;2022-12-29T03:35:22;10.10;99.90
21246;DHT22;10781;50.928;4.440;2022-12-29T03:38:02;10.20;99.90
21246;DHT22;10781;50.928;4.440;2022-12-29T03:40:31;10.20;99.90
21246;DHT22;10781;50.928;4.440;2022-12-29T03:42:58;10.20;99.90
21246;DHT22;10781;50.928;4.440;2022-12-29T03:45:24;10.30;99.90
21246;DHT22;10781;50.928;4.440;2022-12-29T03:47:50;10.40;99.90
21246;DHT22;10781;50.928;4.440;2022-12-29T03:50:17;10.40;99.90
21246;DHT22;10781;50.928;4.440;2022-12-29T03:52:42;10.50;99.90
21246;DHT22;10781;50.928;4.440;2022-12-29T03:55:08;10.50;99.90
21246;DHT22;10781;50.928;4.440;2022-12-29T03:57:34;10.50;99.90
21246;DHT22;10781;50.928;4.440;2022-12-29T03:59:59;10.50;99.90
21246;DHT22;10781;50.928;4.440;2022-12-29T04:02:25;10.60;99.90
21246;DHT22;10781;50.928;4.440;2022-12-29T04:04:50;10.50;99.90
21246;DHT22;10781;50.928;4.440;2022-12-29T04:07:16;10.60;99.90
21246;DHT22;10781;50.928;4.440;2022-12-29T04:09:42;10.50;99.90
21246;DHT22;10781;50.928;4.440;2022-12-29T04:12:07;10.50;99.90
21246;DHT22;10781;50.928;4.440;2022-12-29T04:14:33;10.50;99.90
21246;DHT22;10781;50.928;4.440;2022-12-29T04:16:59;10.50;99.90
21246;DHT22;10781;50.928;4.440;2022-12-29T04:19:24;10.50;99.90
21246;DHT22;10781;50.928;4.440;2022-12-29T04:21:50;10.50;99.90
21246;DHT22;10781;50.928;4.440;2022-12-29T04:24:15;10.40;99.90
21246;DHT22;10781;50.928;4.440;2022-12-29T04:26:41;10.40;99.90
21246;DHT22;10781;50.928;4.440;2022-12-29T04:29:07;10.40;99.90
21246;DHT22;10781;50.928;4.440;2022-12-29T04:31:33;10.40;99.90
21246;DHT22;10781;50.928;4.440;2022-12-29T04:33:58;10.50;99.90
21246;DHT22;10781;50.928;4.440;2022-12-29T04:36:25;10.40;99.90
21246;DHT22;10781;50.928;4.440;2022-12-29T04:38:51;10.50;99.90
21246;DHT22;10781;50.928;4.440;2022-12-29T04:41:17;10.50;99.90
21246;DHT22;10781;50.928;4.440;2022-12-29T04:43:42;10.60;99.90
21246;DHT22;10781;50.928;4.440;2022-12-29T04:46:08;10.70;99.90
21246;DHT22;10781;50.928;4.440;2022-12-29T04:48:34;10.80;99.90
21246;DHT22;10781;50.928;4.440;2022-12-29T04:50:59;10.90;99.90
21246;DHT22;10781;50.928;4.440;2022-12-29T04:53:26;10.80;99.90
21246;DHT22;10781;50.928;4.440;2022-12-29T04:55:52;10.80;99.90
21246;DHT22;10781;50.928;4.440;2022-12-29T04:58:21;10.70;99.90
21246;DHT22;10781;50.928;4.440;2022-12-29T05:00:47;10.60;99.90
21246;DHT22;10781;50.928;4.440;2022-12-29T05:03:13;10.60;99.90
21246;DHT22;10781;50.928;4.440;2022-12-29T05:05:38;10.60;99.90
21246;DHT22;10781;50.928;4.440;2022-12-29T05:08:04;10.60;99.90
21246;DHT22;10781;50.928;4.440;2022-12-29T05:10:30;10.70;99.90
21246;DHT22;10781;50.928;4.440;2022-12-29T05:12:57;10.70;99.90
21246;DHT22;10781;50.928;4.440;2022-12-29T05:15:23;10.80;99.90
21246;DHT22;10781;50.928;4.440;2022-12-29T05:17:48;10.80;99.90
21246;DHT22;10781;50.928;4.440;2022-12-29T05:20:14;10.80;99.90
21246;DHT22;10781;50.928;4.440;2022-12-29T05:22:40;10.90;99.90
21246;DHT22;10781;50.928;4.440;2022-12-29T05:25:06;11.00;99.90
21246;DHT22;10781;50.928;4.440;2022-12-29T05:27:31;11.10;99.90
21246;DHT22;10781;50.928;4.440;2022-12-29T05:29:57;11.10;99.90
21246;DHT22;10781;50.928;4.440;2022-12-29T05:32:23;11.10;99.90
21246;DHT22;10781;50.928;4.440;2022-12-29T05:34:48;11.10;99.90
21246;DHT22;10781;50.928;4.440;2022-12-29T05:37:15;11.10;99.90
21246;DHT22;10781;50.928;4.440;2022-12-29T05:39:40;11.20;99.90
21246;DHT22;10781;50.928;4.440;2022-12-29T05:42:06;11.20;99.90
21246;DHT22;10781;50.928;4.440;2022-12-29T05:44:31;11.20;99.90
21246;DHT22;10781;50.928;4.440;2022-12-29T05:46:57;11.10;99.90
21246;DHT22;10781;50.928;4.440;2022-12-29T05:49:23;11.10;99.90
21246;DHT22;10781;50.928;4.440;2022-12-29T05:51:48;11.20;99.90
21246;DHT22;10781;50.928;4.440;2022-12-29T05:54:14;11.00;99.90
21246;DHT22;10781;50.928;4.440;2022-12-29T05:56:40;11.00;99.90
21246;DHT22;10781;50.928;4.440;2022-12-29T05:59:05;11.00;99.90
21246;DHT22;10781;50.928;4.440;2022-12-29T06:01:31;11.00;99.90
21246;DHT22;10781;50.928;4.440;2022-12-29T06:03:56;11.10;99.90
21246;DHT22;10781;50.928;4.440;2022-12-29T06:06:22;11.10;99.90
21246;DHT22;10781;50.928;4.440;2022-12-29T06:08:48;11.00;99.90
21246;DHT22;10781;50.928;4.440;2022-12-29T06:11:13;11.00;99.90
21246;DHT22;10781;50.928;4.440;2022-12-29T06:13:39;11.00;99.90
21246;DHT22;10781;50.928;4.440;2022-12-29T06:16:05;10.90;99.90
21246;DHT22;10781;50.928;4.440;2022-12-29T06:18:31;10.90;99.90
21246;DHT22;10781;50.928;4.440;2022-12-29T06:21:01;10.80;99.90
21246;DHT22;10781;50.928;4.440;2022-12-29T06:23:26;10.80;99.90
21246;DHT22;10781;50.928;4.440;2022-12-29T06:25:52;10.80;99.90
21246;DHT22;10781;50.928;4.440;2022-12-29T06:28:18;10.80;99.90
21246;DHT22;10781;50.928;4.440;2022-12-29T06:30:45;10.80;99.90
21246;DHT22;10781;50.928;4.440;2022-12-29T06:33:11;10.70;99.90
21246;DHT22;10781;50.928;4.440;2022-12-29T06:35:37;10.70;99.90
21246;DHT22;10781;50.928;4.440;2022-12-29T06:38:03;10.70;99.90
21246;DHT22;10781;50.928;4.440;2022-12-29T06:40:29;10.70;99.90
21246;DHT22;10781;50.928;4.440;2022-12-29T06:42:55;10.80;99.90
21246;DHT22;10781;50.928;4.440;2022-12-29T06:45:21;10.90;99.90
21246;DHT22;10781;50.928;4.440;2022-12-29T06:47:46;11.00;99.90
21246;DHT22;10781;50.928;4.440;2022-12-29T06:50:12;11.00;99.90
21246;DHT22;10781;50.928;4.440;2022-12-29T06:52:38;11.10;99.90
21246;DHT22;10781;50.928;4.440;2022-12-29T06:55:04;11.20;99.90
21246;DHT22;10781;50.928;4.440;2022-12-29T06:57:29;11.10;99.90
21246;DHT22;10781;50.928;4.440;2022-12-29T06:59:55;11.10;99.90
21246;DHT22;10781;50.928;4.440;2022-12-29T07:02:21;11.10;99.90
21246;DHT22;10781;50.928;4.440;2022-12-29T07:04:47;11.10;99.90
21246;DHT22;10781;50.928;4.440;2022-12-29T07:07:13;11.10;99.90
21246;DHT22;10781;50.928;4.440;2022-12-29T07:09:38;11.10;99.90
21246;DHT22;10781;50.928;4.440;2022-12-29T07:12:04;11.10;99.90
21246;DHT22;10781;50.928;4.440;2022-12-29T07:14:30;11.10;99.90
21246;DHT22;10781;50.928;4.440;2022-12-29T07:16:55;11.10;99.90
21246;DHT22;10781;50.928;4.440;2022-12-29T07:19:21;11.10;99.90
21246;DHT22;10781;50.928;4.440;2022-12-29T07:21:46;11.10;99.90
21246;DHT22;10781;50.928;4.440;2022-12-29T07:24:12;11.10;99.90
21246;DHT22;10781;50.928;4.440;2022-12-29T07:26:38;11.10;99.90
21246;DHT22;10781;50.928;4.440;2022-12-29T07:29:04;11.20;99.90
21246;DHT22;10781;50.928;4.440;2022-12-29T07:31:29;11.20;99.90
21246;DHT22;10781;50.928;4.440;2022-12-29T07:33:55;11.30;99.90
21246;DHT22;10781;50.928;4.440;2022-12-29T07:36:21;11.40;99.90
21246;DHT22;10781;50.928;4.440;2022-12-29T07:38:47;11.40;99.90
21246;DHT22;10781;50.928;4.440;2022-12-29T07:41:12;11.40;99.90
21246;DHT22;10781;50.928;4.440;2022-12-29T07:43:38;11.40;99.90
21246;DHT22;10781;50.928;4.440;2022-12-29T07:46:04;11.40;99.90
21246;DHT22;10781;50.928;4.440;2022-12-29T07:48:30;11.40;99.90
21246;DHT22;10781;50.928;4.440;2022-12-29T07:50:55;11.50;99.90
21246;DHT22;10781;50.928;4.440;2022-12-29T07:53:21;11.40;99.90
21246;DHT22;10781;50.928;4.440;2022-12-29T07:55:47;11.30;99.90
21246;DHT22;10781;50.928;4.440;2022-12-29T07:58:12;11.30;99.90
21246;DHT22;10781;50.928;4.440;2022-12-29T08:00:38;11.40;99.90
21246;DHT22;10781;50.928;4.440;2022-12-29T08:03:04;11.40;99.90
21246;DHT22;10781;50.928;4.440;2022-12-29T08:05:32;11.40;99.90
21246;DHT22;10781;50.928;4.440;2022-12-29T08:07:58;11.40;99.90
21246;DHT22;10781;50.928;4.440;2022-12-29T08:10:24;11.50;99.90
21246;DHT22;10781;50.928;4.440;2022-12-29T08:12:50;11.50;99.90
21246;DHT22;10781;50.928;4.440;2022-12-29T08:15:15;11.50;99.90
21246;DHT22;10781;50.928;4.440;2022-12-29T08:17:41;11.50;99.90
21246;DHT22;10781;50.928;4.440;2022-12-29T08:20:07;11.50;99.90
21246;DHT22;10781;50.928;4.440;2022-12-29T08:22:33;11.50;99.90
21246;DHT22;10781;50.928;4.440;2022-12-29T08:24:59;11.60;99.90
21246;DHT22;10781;50.928;4.440;2022-12-29T08:27:25;11.50;99.90
21246;DHT22;10781;50.928;4.440;2022-12-29T08:29:51;11.50;99.90
21246;DHT22;10781;50.928;4.440;2022-12-29T08:32:17;11.60;99.90
21246;DHT22;10781;50.928;4.440;2022-12-29T08:34:43;11.60;99.90
21246;DHT22;10781;50.928;4.440;2022-12-29T08:37:08;11.60;99.90
21246;DHT22;10781;50.928;4.440;2022-12-29T08:39:34;11.60;99.90
21246;DHT22;10781;50.928;4.440;2022-12-29T08:42:00;11.60;99.90
21246;DHT22;10781;50.928;4.440;2022-12-29T08:44:25;11.60;99.90
21246;DHT22;10781;50.928;4.440;2022-12-29T08:46:51;11.60;99.90
21246;DHT22;10781;50.928;4.440;2022-12-29T08:49:17;11.60;99.90
21246;DHT22;10781;50.928;4.440;2022-12-29T08:51:42;11.60;99.90
21246;DHT22;10781;50.928;4.440;2022-12-29T08:54:08;11.50;99.90
21246;DHT22;10781;50.928;4.440;2022-12-29T08:56:34;11.40;99.90
21246;DHT22;10781;50.928;4.440;2022-12-29T08:58:59;11.30;99.90
21246;DHT22;10781;50.928;4.440;2022-12-29T09:01:25;11.30;99.90
21246;DHT22;10781;50.928;4.440;2022-12-29T09:03:51;11.30;99.90
21246;DHT22;10781;50.928;4.440;2022-12-29T09:06:17;11.20;99.90
21246;DHT22;10781;50.928;4.440;2022-12-29T09:08:43;11.10;99.90
21246;DHT22;10781;50.928;4.440;2022-12-29T09:11:16;11.10;99.90
21246;DHT22;10781;50.928;4.440;2022-12-29T09:13:42;11.10;99.90
21246;DHT22;10781;50.928;4.440;2022-12-29T09:16:08;11.00;99.90
21246;DHT22;10781;50.928;4.440;2022-12-29T09:18:34;10.90;99.90
21246;DHT22;10781;50.928;4.440;2022-12-29T09:21:01;10.80;99.90
21246;DHT22;10781;50.928;4.440;2022-12-29T09:23:28;10.70;99.90
21246;DHT22;10781;50.928;4.440;2022-12-29T09:25:54;10.60;99.90
21246;DHT22;10781;50.928;4.440;2022-12-29T09:28:21;10.60;99.90
21246;DHT22;10781;50.928;4.440;2022-12-29T09:30:47;10.60;99.90
21246;DHT22;10781;50.928;4.440;2022-12-29T09:33:13;10.60;99.90
21246;DHT22;10781;50.928;4.440;2022-12-29T09:35:50;10.70;99.90
21246;DHT22;10781;50.928;4.440;2022-12-29T09:38:16;10.70;99.90
21246;DHT22;10781;50.928;4.440;2022-12-29T09:40:45;10.70;99.90
21246;DHT22;10781;50.928;4.440;2022-12-29T09:45:43;10.70;99.90
21246;DHT22;10781;50.928;4.440;2022-12-29T09:48:33;10.50;99.90
21246;DHT22;10781;50.928;4.440;2022-12-29T09:51:03;10.60;99.90
21246;DHT22;10781;50.928;4.440;2022-12-29T09:53:41;10.40;99.90
21246;DHT22;10781;50.928;4.440;2022-12-29T09:56:15;10.30;99.90
21246;DHT22;10781;50.928;4.440;2022-12-29T09:58:52;10.20;99.90
21246;DHT22;10781;50.928;4.440;2022-12-29T10:02:06;10.20;99.90
21246;DHT22;10781;50.928;4.440;2022-12-29T10:04:08;10.20;99.90
21246;DHT22;10781;50.928;4.440;2022-12-29T10:06:48;10.40;99.90
21246;DHT22;10781;50.928;4.440;2022-12-29T10:09:44;10.50;99.90
21246;DHT22;10781;50.928;4.440;2022-12-29T10:20:27;11.00;99.90
21246;DHT22;10781;50.928;4.440;2022-12-29T10:24:18;11.20;99.90
21246;DHT22;10781;50.928;4.440;2022-12-29T10:26:26;11.20;99.90
21246;DHT22;10781;50.928;4.440;2022-12-29T10:29:19;11.20;99.90
21246;DHT22;10781;50.928;4.440;2022-12-29T10:31:45;11.40;99.90
21246;DHT22;10781;50.928;4.440;2022-12-29T10:34:31;11.30;99.90
21246;DHT22;10781;50.928;4.440;2022-12-29T10:37:04;11.30;99.90
21246;DHT22;10781;50.928;4.440;2022-12-29T10:39:33;11.50;99.90
21246;DHT22;10781;50.928;4.440;2022-12-29T10:42:24;11.50;99.90
21246;DHT22;10781;50.928;4.440;2022-12-29T10:44:51;11.50;99.90
21246;DHT22;10781;50.928;4.440;2022-12-29T10:47:20;11.70;99.90
21246;DHT22;10781;50.928;4.440;2022-12-29T10:49:47;11.80;99.90
21246;DHT22;10781;50.928;4.440;2022-12-29T10:52:15;11.90;99.90
21246;DHT22;10781;50.928;4.440;2022-12-29T10:54:59;12.10;99.90
21246;DHT22;10781;50.928;4.440;2022-12-29T10:59:58;12.10;99.90
21246;DHT22;10781;50.928;4.440;2022-12-29T11:08:14;12.40;99.90
21246;DHT22;10781;50.928;4.440;2022-12-29T11:10:43;12.30;99.90
21246;DHT22;10781;50.928;4.440;2022-12-29T11:15:46;12.30;99.90
21246;DHT22;10781;50.928;4.440;2022-12-29T11:18:32;12.30;99.90
21246;DHT22;10781;50.928;4.440;2022-12-29T11:21:00;12.30;99.90
21246;DHT22;10781;50.928;4.440;2022-12-29T11:23:40;12.30;99.90
21246;DHT22;10781;50.928;4.440;2022-12-29T11:26:08;12.50;99.90
21246;DHT22;10781;50.928;4.440;2022-12-29T11:28:38;12.20;99.90
21246;DHT22;10781;50.928;4.440;2022-12-29T11:31:05;11.90;99.90
21246;DHT22;10781;50.928;4.440;2022-12-29T11:33:33;11.80;99.90
21246;DHT22;10781;50.928;4.440;2022-12-29T11:36:07;11.90;99.90
21246;DHT22;10781;50.928;4.440;2022-12-29T11:38:41;11.80;99.90
21246;DHT22;10781;50.928;4.440;2022-12-29T11:41:11;11.80;99.90
21246;DHT22;10781;50.928;4.440;2022-12-29T11:43:41;11.70;99.90
21246;DHT22;10781;50.928;4.440;2022-12-29T11:46:24;11.50;99.90
21246;DHT22;10781;50.928;4.440;2022-12-29T11:48:51;11.30;99.90
21246;DHT22;10781;50.928;4.440;2022-12-29T11:51:44;11.20;99.90
21246;DHT22;10781;50.928;4.440;2022-12-29T11:54:30;11.10;99.90
21246;DHT22;10781;50.928;4.440;2022-12-29T11:56:57;11.10;99.90
21246;DHT22;10781;50.928;4.440;2022-12-29T12:01:53;11.40;99.90
21246;DHT22;10781;50.928;4.440;2022-12-29T12:04:22;11.50;99.90
21246;DHT22;10781;50.928;4.440;2022-12-29T12:07:13;11.50;99.90
21246;DHT22;10781;50.928;4.440;2022-12-29T12:09:51;11.40;99.90
21246;DHT22;10781;50.928;4.440;2022-12-29T12:15:44;11.30;99.90
21246;DHT22;10781;50.928;4.440;2022-12-29T12:19:09;11.30;99.90
21246;DHT22;10781;50.928;4.440;2022-12-29T12:21:26;11.40;99.90
21246;DHT22;10781;50.928;4.440;2022-12-29T12:26:41;11.60;99.90
21246;DHT22;10781;50.928;4.440;2022-12-29T12:29:16;11.60;99.90
21246;DHT22;10781;50.928;4.440;2022-12-29T12:34:41;11.60;99.90
21246;DHT22;10781;50.928;4.440;2022-12-29T12:44:58;11.30;99.90
21246;DHT22;10781;50.928;4.440;2022-12-29T12:47:33;11.30;99.90
21246;DHT22;10781;50.928;4.440;2022-12-29T12:52:58;11.50;99.90
21246;DHT22;10781;50.928;4.440;2022-12-29T13:00:33;11.70;99.90
21246;DHT22;10781;50.928;4.440;2022-12-29T13:05:47;11.80;99.90
21246;DHT22;10781;50.928;4.440;2022-12-29T13:19:44;11.40;99.90
21246;DHT22;10781;50.928;4.440;2022-12-29T13:33:45;11.60;99.90
21246;DHT22;10781;50.928;4.440;2022-12-29T13:36:29;11.60;99.90
21246;DHT22;10781;50.928;4.440;2022-12-29T13:39:17;11.70;99.90
21246;DHT22;10781;50.928;4.440;2022-12-29T13:41:51;11.70;99.90
21246;DHT22;10781;50.928;4.440;2022-12-29T13:44:38;11.70;99.90
21246;DHT22;10781;50.928;4.440;2022-12-29T13:48:06;11.70;99.90
21246;DHT22;10781;50.928;4.440;2022-12-29T13:50:24;11.80;99.90
21246;DHT22;10781;50.928;4.440;2022-12-29T14:04:00;11.50;99.90
21246;DHT22;10781;50.928;4.440;2022-12-29T14:06:33;11.60;99.90
21246;DHT22;10781;50.928;4.440;2022-12-29T14:09:04;11.60;99.90
21246;DHT22;10781;50.928;4.440;2022-12-29T14:11:38;11.70;99.90
21246;DHT22;10781;50.928;4.440;2022-12-29T14:14:31;11.70;99.90
21246;DHT22;10781;50.928;4.440;2022-12-29T14:17:11;11.50;99.90
21246;DHT22;10781;50.928;4.440;2022-12-29T14:19:40;11.50;99.90
21246;DHT22;10781;50.928;4.440;2022-12-29T14:22:08;11.50;99.90
21246;DHT22;10781;50.928;4.440;2022-12-29T14:34:59;10.90;99.90
21246;DHT22;10781;50.928;4.440;2022-12-29T14:42:48;9.60;99.90
21246;DHT22;10781;50.928;4.440;2022-12-29T14:47:41;9.20;99.90
21246;DHT22;10781;50.928;4.440;2022-12-29T14:50:15;9.00;99.90
21246;DHT22;10781;50.928;4.440;2022-12-29T14:53:05;8.90;99.90
21246;DHT22;10781;50.928;4.440;2022-12-29T14:55:40;8.90;99.90
21246;DHT22;10781;50.928;4.440;2022-12-29T14:58:20;8.90;99.90
21246;DHT22;10781;50.928;4.440;2022-12-29T15:00:47;8.90;99.90
21246;DHT22;10781;50.928;4.440;2022-12-29T15:05:58;8.80;99.90
21246;DHT22;10781;50.928;4.440;2022-12-29T15:08:26;8.70;99.90
21246;DHT22;10781;50.928;4.440;2022-12-29T15:11:13;8.70;99.90
21246;DHT22;10781;50.928;4.440;2022-12-29T15:13:42;8.60;99.90
21246;DHT22;10781;50.928;4.440;2022-12-29T15:16:26;8.50;99.90
21246;DHT22;10781;50.928;4.440;2022-12-29T15:18:54;8.50;99.90
21246;DHT22;10781;50.928;4.440;2022-12-29T15:21:25;8.40;99.90
21246;DHT22;10781;50.928;4.440;2022-12-29T15:23:52;8.40;99.90
21246;DHT22;10781;50.928;4.440;2022-12-29T15:26:18;8.30;99.90
21246;DHT22;10781;50.928;4.440;2022-12-29T15:28:49;8.30;99.90
21246;DHT22;10781;50.928;4.440;2022-12-29T15:31:21;8.30;99.90
21246;DHT22;10781;50.928;4.440;2022-12-29T15:33:53;8.40;99.90
21246;DHT22;10781;50.928;4.440;2022-12-29T15:36:24;8.50;99.90
21246;DHT22;10781;50.928;4.440;2022-12-29T15:38:51;8.50;99.90
21246;DHT22;10781;50.928;4.440;2022-12-29T15:44:19;8.60;99.90
21246;DHT22;10781;50.928;4.440;2022-12-29T15:46:46;8.50;99.90
21246;DHT22;10781;50.928;4.440;2022-12-29T15:49:14;8.40;99.90
21246;DHT22;10781;50.928;4.440;2022-12-29T15:51:40;8.40;99.90
21246;DHT22;10781;50.928;4.440;2022-12-29T15:54:19;8.40;99.90
21246;DHT22;10781;50.928;4.440;2022-12-29T15:56:51;8.50;99.90
21246;DHT22;10781;50.928;4.440;2022-12-29T15:59:26;8.50;99.90
21246;DHT22;10781;50.928;4.440;2022-12-29T16:01:52;8.60;99.90
21246;DHT22;10781;50.928;4.440;2022-12-29T16:04:18;8.70;99.90
21246;DHT22;10781;50.928;4.440;2022-12-29T16:07:01;8.60;99.90
21246;DHT22;10781;50.928;4.440;2022-12-29T16:09:42;8.60;99.90
21246;DHT22;10781;50.928;4.440;2022-12-29T16:12:16;8.50;99.90
21246;DHT22;10781;50.928;4.440;2022-12-29T16:14:48;8.50;99.90
21246;DHT22;10781;50.928;4.440;2022-12-29T16:17:17;8.60;99.90
21246;DHT22;10781;50.928;4.440;2022-12-29T16:19:51;8.60;99.90
21246;DHT22;10781;50.928;4.440;2022-12-29T16:22:29;8.60;99.90
21246;DHT22;10781;50.928;4.440;2022-12-29T16:25:02;8.50;99.90
21246;DHT22;10781;50.928;4.440;2022-12-29T16:27:31;8.60;99.90
21246;DHT22;10781;50.928;4.440;2022-12-29T16:29:57;8.60;99.90
21246;DHT22;10781;50.928;4.440;2022-12-29T16:32:26;8.50;99.90
21246;DHT22;10781;50.928;4.440;2022-12-29T16:35:16;8.60;99.90
21246;DHT22;10781;50.928;4.440;2022-12-29T16:37:43;8.80;99.90
21246;DHT22;10781;50.928;4.440;2022-12-29T16:40:27;8.80;99.90
21246;DHT22;10781;50.928;4.440;2022-12-29T16:43:02;8.80;99.90
21246;DHT22;10781;50.928;4.440;2022-12-29T16:50:42;8.90;99.90
21246;DHT22;10781;50.928;4.440;2022-12-29T16:53:29;8.90;99.90
21246;DHT22;10781;50.928;4.440;2022-12-29T16:56:03;8.90;99.90
21246;DHT22;10781;50.928;4.440;2022-12-29T16:58:30;8.90;99.90
21246;DHT22;10781;50.928;4.440;2022-12-29T17:01:00;8.90;99.90
21246;DHT22;10781;50.928;4.440;2022-12-29T17:03:33;8.90;99.90
21246;DHT22;10781;50.928;4.440;2022-12-29T17:05:59;8.80;99.90
21246;DHT22;10781;50.928;4.440;2022-12-29T17:08:25;8.90;99.90
21246;DHT22;10781;50.928;4.440;2022-12-29T17:10:52;8.80;99.90
21246;DHT22;10781;50.928;4.440;2022-12-29T17:13:38;8.90;99.90
21246;DHT22;10781;50.928;4.440;2022-12-29T17:16:08;8.90;99.90
21246;DHT22;10781;50.928;4.440;2022-12-29T17:18:35;8.80;99.90
21246;DHT22;10781;50.928;4.440;2022-12-29T17:21:01;8.80;99.90
21246;DHT22;10781;50.928;4.440;2022-12-29T17:23:27;8.90;99.90
21246;DHT22;10781;50.928;4.440;2022-12-29T17:25:55;8.90;99.90
21246;DHT22;10781;50.928;4.440;2022-12-29T17:28:27;8.90;99.90
21246;DHT22;10781;50.928;4.440;2022-12-29T17:31:02;8.90;99.90
21246;DHT22;10781;50.928;4.440;2022-12-29T17:33:31;8.90;99.90
21246;DHT22;10781;50.928;4.440;2022-12-29T17:35:59;8.80;99.90
21246;DHT22;10781;50.928;4.440;2022-12-29T17:38:30;8.80;99.90
21246;DHT22;10781;50.928;4.440;2022-12-29T17:40:57;8.90;99.90
21246;DHT22;10781;50.928;4.440;2022-12-29T17:43:23;8.90;99.90
21246;DHT22;10781;50.928;4.440;2022-12-29T17:45:58;8.80;99.90
21246;DHT22;10781;50.928;4.440;2022-12-29T17:48:24;8.70;99.90
21246;DHT22;10781;50.928;4.440;2022-12-29T17:50:52;8.80;99.90
21246;DHT22;10781;50.928;4.440;2022-12-29T17:53:23;8.80;99.90
21246;DHT22;10781;50.928;4.440;2022-12-29T17:55:50;8.80;99.90
21246;DHT22;10781;50.928;4.440;2022-12-29T17:58:22;8.80;99.90
21246;DHT22;10781;50.928;4.440;2022-12-29T18:00:50;8.70;99.90
21246;DHT22;10781;50.928;4.440;2022-12-29T18:03:42;8.70;99.90
21246;DHT22;10781;50.928;4.440;2022-12-29T18:06:10;8.70;99.90
21246;DHT22;10781;50.928;4.440;2022-12-29T18:08:39;8.70;99.90
21246;DHT22;10781;50.928;4.440;2022-12-29T18:11:20;8.70;99.90
21246;DHT22;10781;50.928;4.440;2022-12-29T18:13:46;8.80;99.90
21246;DHT22;10781;50.928;4.440;2022-12-29T18:16:12;8.80;99.90
21246;DHT22;10781;50.928;4.440;2022-12-29T18:18:38;8.70;99.90
21246;DHT22;10781;50.928;4.440;2022-12-29T18:21:04;8.70;99.90
21246;DHT22;10781;50.928;4.440;2022-12-29T18:23:31;8.70;99.90
21246;DHT22;10781;50.928;4.440;2022-12-29T18:28:29;8.80;99.90
21246;DHT22;10781;50.928;4.440;2022-12-29T18:30:56;8.70;99.90